sensor_id;sensor_type;location;lat;lon;timestamp;pressure;altitude;pressure_sealevel;temperature;humidity
59789;BME280;47353;51.614;5.530;2022-12-07T00:01:27;101730.91;;;2.99;100.00
59789;BME280;47353;51.614;5.530;2022-12-07T00:03:54;101734.47;;;2.93;100.00
59789;BME280;47353;51.614;5.530;2022-12-07T00:06:22;101732.78;;;2.92;100.00
59789;BME280;47353;51.614;5.530;2022-12-07T00:08:47;101727.06;;;2.81;100.00
59789;BME280;47353;51.614;5.530;2022-12-07T00:11:18;101714.44;;;2.80;100.00
59789;BME280;47353;51.614;5.530;2022-12-07T00:13:44;101725.84;;;2.83;100.00
59789;BME280;47353;51.614;5.530;2022-12-07T00:16:15;101716.78;;;2.83;100.00
59789;BME280;47353;51.614;5.530;2022-12-07T00:18:41;101721.59;;;2.81;100.00
59789;BME280;47353;51.614;5.530;2022-12-07T00:21:10;101715.28;;;2.74;100.00
59789;BME280;47353;51.614;5.530;2022-12-07T00:23:36;101715.72;;;2.77;100.00
59789;BME280;47353;51.614;5.530;2022-12-07T00:26:14;101705.81;;;2.76;100.00
59789;BME280;47353;51.614;5.530;2022-12-07T00:28:40;101712.38;;;2.82;100.00
59789;BME280;47353;51.614;5.530;2022-12-07T00:31:08;101710.66;;;2.81;100.00
59789;BME280;47353;51.614;5.530;2022-12-07T00:33:34;101707.31;;;2.79;100.00
59789;BME280;47353;51.614;5.530;2022-12-07T00:36:01;101706.47;;;2.78;100.00
59789;BME280;47353;51.614;5.530;2022-12-07T00:38:29;101703.06;;;2.76;100.00
59789;BME280;47353;51.614;5.530;2022-12-07T00:41:05;101701.41;;;2.75;100.00
59789;BME280;47353;51.614;5.530;2022-12-07T00:43:31;101703.50;;;2.73;100.00
59789;BME280;47353;51.614;5.530;2022-12-07T00:45:57;101700.75;;;2.73;100.00
59789;BME280;47353;51.614;5.530;2022-12-07T00:48:23;101711.50;;;2.75;100.00
59789;BME280;47353;51.614;5.530;2022-12-07T00:50:49;101704.78;;;2.77;100.00
59789;BME280;47353;51.614;5.530;2022-12-07T00:53:15;101708.56;;;2.83;100.00
59789;BME280;47353;51.614;5.530;2022-12-07T00:55:40;101707.09;;;2.87;100.00
59789;BME280;47353;51.614;5.530;2022-12-07T00:58:06;101702.28;;;2.89;100.00
59789;BME280;47353;51.614;5.530;2022-12-07T01:00:31;101690.69;;;2.80;100.00
59789;BME280;47353;51.614;5.530;2022-12-07T01:02:56;101702.50;;;2.87;100.00
59789;BME280;47353;51.614;5.530;2022-12-07T01:05:22;101693.44;;;2.80;100.00
59789;BME280;47353;51.614;5.530;2022-12-07T01:07:47;101700.59;;;2.81;100.00
59789;BME280;47353;51.614;5.530;2022-12-07T01:10:13;101689.00;;;2.73;100.00
59789;BME280;47353;51.614;5.530;2022-12-07T01:12:40;101692.75;;;2.72;100.00
59789;BME280;47353;51.614;5.530;2022-12-07T01:15:06;101695.47;;;2.65;100.00
59789;BME280;47353;51.614;5.530;2022-12-07T01:17:32;101704.06;;;2.62;100.00
59789;BME280;47353;51.614;5.530;2022-12-07T01:19:58;101699.03;;;2.59;100.00
59789;BME280;47353;51.614;5.530;2022-12-07T01:22:23;101698.81;;;2.61;100.00
59789;BME280;47353;51.614;5.530;2022-12-07T01:24:48;101698.00;;;2.60;100.00
59789;BME280;47353;51.614;5.530;2022-12-07T01:27:14;101715.84;;;2.63;100.00
59789;BME280;47353;51.614;5.530;2022-12-07T01:29:40;101704.97;;;2.69;100.00
59789;BME280;47353;51.614;5.530;2022-12-07T01:32:05;101693.38;;;2.67;100.00
59789;BME280;47353;51.614;5.530;2022-12-07T01:34:30;101702.25;;;2.82;100.00
59789;BME280;47353;51.614;5.530;2022-12-07T01:36:56;101705.00;;;2.82;100.00
59789;BME280;47353;51.614;5.530;2022-12-07T01:39:22;101707.31;;;2.85;100.00
59789;BME280;47353;51.614;5.530;2022-12-07T01:41:48;101710.25;;;2.84;100.00
59789;BME280;47353;51.614;5.530;2022-12-07T01:46:47;101697.88;;;2.88;100.00
59789;BME280;47353;51.614;5.530;2022-12-07T01:54:34;101706.72;;;2.96;100.00
59789;BME280;47353;51.614;5.530;2022-12-07T01:57:00;101709.25;;;2.98;100.00
59789;BME280;47353;51.614;5.530;2022-12-07T01:59:26;101700.22;;;2.97;100.00
59789;BME280;47353;51.614;5.530;2022-12-07T02:01:54;101698.31;;;2.98;100.00
59789;BME280;47353;51.614;5.530;2022-12-07T02:04:21;101693.25;;;2.95;100.00
59789;BME280;47353;51.614;5.530;2022-12-07T02:06:47;101699.56;;;2.95;100.00
59789;BME280;47353;51.614;5.530;2022-12-07T02:09:13;101696.19;;;2.93;100.00
59789;BME280;47353;51.614;5.530;2022-12-07T02:11:39;101700.59;;;2.88;100.00
59789;BME280;47353;51.614;5.530;2022-12-07T02:14:05;101692.78;;;2.78;100.00
59789;BME280;47353;51.614;5.530;2022-12-07T02:16:34;101696.34;;;2.72;100.00
59789;BME280;47353;51.614;5.530;2022-12-07T02:21:56;101695.06;;;2.62;100.00
59789;BME280;47353;51.614;5.530;2022-12-07T02:27:46;101691.63;;;2.47;100.00
59789;BME280;47353;51.614;5.530;2022-12-07T02:30:32;101696.44;;;2.45;100.00
59789;BME280;47353;51.614;5.530;2022-12-07T02:33:14;101685.94;;;2.42;100.00
59789;BME280;47353;51.614;5.530;2022-12-07T02:36:05;101698.75;;;2.41;100.00
59789;BME280;47353;51.614;5.530;2022-12-07T02:41:07;101672.19;;;2.29;100.00
59789;BME280;47353;51.614;5.530;2022-12-07T02:43:39;101683.81;;;2.37;100.00
59789;BME280;47353;51.614;5.530;2022-12-07T02:46:14;101694.94;;;2.36;100.00
59789;BME280;47353;51.614;5.530;2022-12-07T02:48:43;101683.38;;;2.34;100.00
59789;BME280;47353;51.614;5.530;2022-12-07T02:51:09;101680.38;;;2.29;100.00
59789;BME280;47353;51.614;5.530;2022-12-07T02:53:35;101684.19;;;2.28;100.00
59789;BME280;47353;51.614;5.530;2022-12-07T03:07:01;101689.44;;;2.29;100.00
59789;BME280;47353;51.614;5.530;2022-12-07T03:09:41;101694.28;;;2.34;100.00
59789;BME280;47353;51.614;5.530;2022-12-07T03:12:13;101688.41;;;2.37;100.00
59789;BME280;47353;51.614;5.530;2022-12-07T03:14:46;101688.69;;;2.48;100.00
59789;BME280;47353;51.614;5.530;2022-12-07T03:17:19;101689.13;;;2.52;100.00
59789;BME280;47353;51.614;5.530;2022-12-07T03:19:48;101684.75;;;2.57;100.00
59789;BME280;47353;51.614;5.530;2022-12-07T03:22:14;101695.47;;;2.59;100.00
59789;BME280;47353;51.614;5.530;2022-12-07T03:25:00;101699.03;;;2.59;100.00
59789;BME280;47353;51.614;5.530;2022-12-07T03:27:33;101690.25;;;2.70;100.00
59789;BME280;47353;51.614;5.530;2022-12-07T03:30:03;101687.94;;;2.74;100.00
59789;BME280;47353;51.614;5.530;2022-12-07T03:32:41;101680.38;;;2.76;100.00
59789;BME280;47353;51.614;5.530;2022-12-07T03:37:49;101691.13;;;2.84;100.00
59789;BME280;47353;51.614;5.530;2022-12-07T03:40:22;101685.06;;;2.88;100.00
59789;BME280;47353;51.614;5.530;2022-12-07T03:42:51;101684.63;;;2.91;100.00
59789;BME280;47353;51.614;5.530;2022-12-07T03:45:17;101676.22;;;2.93;100.00
59789;BME280;47353;51.614;5.530;2022-12-07T03:47:59;101676.44;;;2.98;100.00
59789;BME280;47353;51.614;5.530;2022-12-07T03:50:48;101676.88;;;3.01;100.00
59789;BME280;47353;51.614;5.530;2022-12-07T03:53:23;101662.53;;;2.99;100.00
59789;BME280;47353;51.614;5.530;2022-12-07T03:55:51;101672.47;;;3.00;100.00
59789;BME280;47353;51.614;5.530;2022-12-07T03:58:20;101676.00;;;3.01;100.00
59789;BME280;47353;51.614;5.530;2022-12-07T04:00:47;101681.91;;;3.04;100.00
59789;BME280;47353;51.614;5.530;2022-12-07T04:03:13;101667.41;;;3.04;100.00
59789;BME280;47353;51.614;5.530;2022-12-07T04:05:39;101676.25;;;3.06;100.00
59789;BME280;47353;51.614;5.530;2022-12-07T04:08:04;101670.78;;;3.06;100.00
59789;BME280;47353;51.614;5.530;2022-12-07T04:10:30;101673.72;;;3.04;100.00
59789;BME280;47353;51.614;5.530;2022-12-07T04:12:55;101672.84;;;3.04;100.00
59789;BME280;47353;51.614;5.530;2022-12-07T04:15:21;101678.34;;;3.04;100.00
59789;BME280;47353;51.614;5.530;2022-12-07T04:17:47;101682.97;;;3.03;100.00
59789;BME280;47353;51.614;5.530;2022-12-07T04:20:13;101681.28;;;3.02;100.00
59789;BME280;47353;51.614;5.530;2022-12-07T04:22:38;101672.03;;;2.97;100.00
59789;BME280;47353;51.614;5.530;2022-12-07T04:25:04;101681.69;;;2.99;100.00
59789;BME280;47353;51.614;5.530;2022-12-07T04:27:29;101686.13;;;3.00;100.00
59789;BME280;47353;51.614;5.530;2022-12-07T04:29:55;101678.75;;;3.01;100.00
59789;BME280;47353;51.614;5.530;2022-12-07T04:32:21;101674.97;;;3.02;100.00
59789;BME280;47353;51.614;5.530;2022-12-07T04:34:46;101674.13;;;3.01;100.00
59789;BME280;47353;51.614;5.530;2022-12-07T04:37:12;101682.13;;;3.03;100.00
59789;BME280;47353;51.614;5.530;2022-12-07T04:39:37;101675.81;;;3.02;100.00
59789;BME280;47353;51.614;5.530;2022-12-07T04:42:03;101670.34;;;3.02;100.00
59789;BME280;47353;51.614;5.530;2022-12-07T04:44:29;101662.75;;;2.98;100.00
59789;BME280;47353;51.614;5.530;2022-12-07T04:46:55;101665.06;;;3.01;100.00
59789;BME280;47353;51.614;5.530;2022-12-07T04:49:21;101662.97;;;2.96;100.00
59789;BME280;47353;51.614;5.530;2022-12-07T04:51:46;101655.38;;;2.92;100.00
59789;BME280;47353;51.614;5.530;2022-12-07T04:54:13;101661.69;;;2.86;100.00
59789;BME280;47353;51.614;5.530;2022-12-07T04:56:40;101665.25;;;2.80;100.00
59789;BME280;47353;51.614;5.530;2022-12-07T04:59:05;101660.81;;;2.72;100.00
59789;BME280;47353;51.614;5.530;2022-12-07T05:01:31;101662.47;;;2.67;100.00
59789;BME280;47353;51.614;5.530;2022-12-07T05:03:57;101666.44;;;2.58;100.00
59789;BME280;47353;51.614;5.530;2022-12-07T05:06:23;101655.09;;;2.54;100.00
59789;BME280;47353;51.614;5.530;2022-12-07T05:08:49;101641.81;;;2.45;100.00
59789;BME280;47353;51.614;5.530;2022-12-07T05:11:14;101656.13;;;2.53;100.00
59789;BME280;47353;51.614;5.530;2022-12-07T05:14:01;101657.59;;;2.49;100.00
59789;BME280;47353;51.614;5.530;2022-12-07T05:16:26;101660.56;;;2.54;100.00
59789;BME280;47353;51.614;5.530;2022-12-07T05:18:52;101661.38;;;2.48;100.00
59789;BME280;47353;51.614;5.530;2022-12-07T05:21:18;101662.59;;;2.46;100.00
59789;BME280;47353;51.614;5.530;2022-12-07T05:23:43;101665.13;;;2.47;100.00
59789;BME280;47353;51.614;5.530;2022-12-07T05:26:09;101664.72;;;2.50;100.00
59789;BME280;47353;51.614;5.530;2022-12-07T05:28:35;101666.44;;;2.51;100.00
59789;BME280;47353;51.614;5.530;2022-12-07T05:31:00;101664.09;;;2.55;100.00
59789;BME280;47353;51.614;5.530;2022-12-07T05:33:26;101663.09;;;2.56;100.00
59789;BME280;47353;51.614;5.530;2022-12-07T05:35:51;101661.38;;;2.55;100.00
59789;BME280;47353;51.614;5.530;2022-12-07T05:38:16;101672.72;;;2.52;100.00
59789;BME280;47353;51.614;5.530;2022-12-07T05:40:42;101664.31;;;2.47;100.00
59789;BME280;47353;51.614;5.530;2022-12-07T05:43:07;101659.88;;;2.46;100.00
59789;BME280;47353;51.614;5.530;2022-12-07T05:45:32;101653.56;;;2.39;100.00
59789;BME280;47353;51.614;5.530;2022-12-07T05:47:58;101658.63;;;2.42;100.00
59789;BME280;47353;51.614;5.530;2022-12-07T05:50:23;101661.13;;;2.43;100.00
59789;BME280;47353;51.614;5.530;2022-12-07T05:52:48;101655.88;;;2.42;100.00
59789;BME280;47353;51.614;5.530;2022-12-07T05:55:14;101643.66;;;2.38;100.00
59789;BME280;47353;51.614;5.530;2022-12-07T05:57:39;101641.38;;;2.41;100.00
59789;BME280;47353;51.614;5.530;2022-12-07T06:00:05;101637.38;;;2.37;100.00
59789;BME280;47353;51.614;5.530;2022-12-07T06:02:31;101632.53;;;2.33;100.00
59789;BME280;47353;51.614;5.530;2022-12-07T06:04:56;101644.06;;;2.35;100.00
59789;BME280;47353;51.614;5.530;2022-12-07T06:07:21;101642.81;;;2.31;100.00
59789;BME280;47353;51.614;5.530;2022-12-07T06:09:47;101642.16;;;2.29;100.00
59789;BME280;47353;51.614;5.530;2022-12-07T06:12:13;101642.16;;;2.29;100.00
59789;BME280;47353;51.614;5.530;2022-12-07T06:14:57;101648.66;;;2.28;100.00
59789;BME280;47353;51.614;5.530;2022-12-07T06:17:23;101642.34;;;2.27;100.00
59789;BME280;47353;51.614;5.530;2022-12-07T06:19:49;101651.41;;;2.28;100.00
59789;BME280;47353;51.614;5.530;2022-12-07T06:22:15;101641.28;;;2.22;100.00
59789;BME280;47353;51.614;5.530;2022-12-07T06:24:41;101655.34;;;2.19;100.00
59789;BME280;47353;51.614;5.530;2022-12-07T06:27:07;101661.84;;;2.18;100.00
59789;BME280;47353;51.614;5.530;2022-12-07T06:29:32;101657.03;;;2.20;100.00
59789;BME280;47353;51.614;5.530;2022-12-07T06:31:58;101665.22;;;2.20;100.00
59789;BME280;47353;51.614;5.530;2022-12-07T06:34:24;101653.91;;;2.23;100.00
59789;BME280;47353;51.614;5.530;2022-12-07T06:36:51;101651.66;;;2.33;100.00
59789;BME280;47353;51.614;5.530;2022-12-07T06:39:19;101645.28;;;2.26;100.00
59789;BME280;47353;51.614;5.530;2022-12-07T06:41:45;101658.56;;;2.35;100.00
59789;BME280;47353;51.614;5.530;2022-12-07T06:44:11;101654.16;;;2.34;100.00
59789;BME280;47353;51.614;5.530;2022-12-07T06:46:36;101649.94;;;2.32;100.00
59789;BME280;47353;51.614;5.530;2022-12-07T06:49:03;101647.81;;;2.27;100.00
59789;BME280;47353;51.614;5.530;2022-12-07T06:51:28;101650.97;;;2.24;100.00
59789;BME280;47353;51.614;5.530;2022-12-07T06:53:55;101653.91;;;2.23;100.00
59789;BME280;47353;51.614;5.530;2022-12-07T06:56:20;101648.22;;;2.24;100.00
59789;BME280;47353;51.614;5.530;2022-12-07T06:58:45;101663.75;;;2.24;100.00
59789;BME280;47353;51.614;5.530;2022-12-07T07:01:16;101658.94;;;2.26;100.00
59789;BME280;47353;51.614;5.530;2022-12-07T07:03:42;101653.28;;;2.27;100.00
59789;BME280;47353;51.614;5.530;2022-12-07T07:06:07;101660.88;;;2.32;100.00
59789;BME280;47353;51.614;5.530;2022-12-07T07:08:34;101664.91;;;2.36;100.00
59789;BME280;47353;51.614;5.530;2022-12-07T07:11:00;101666.78;;;2.35;100.00
59789;BME280;47353;51.614;5.530;2022-12-07T07:13:26;101661.75;;;2.39;100.00
59789;BME280;47353;51.614;5.530;2022-12-07T07:15:51;101659.44;;;2.42;100.00
59789;BME280;47353;51.614;5.530;2022-12-07T07:18:17;101652.75;;;2.45;100.00
59789;BME280;47353;51.614;5.530;2022-12-07T07:20:42;101659.47;;;2.49;100.00
59789;BME280;47353;51.614;5.530;2022-12-07T07:23:07;101663.91;;;2.50;100.00
59789;BME280;47353;51.614;5.530;2022-12-07T07:25:33;101658.03;;;2.53;100.00
59789;BME280;47353;51.614;5.530;2022-12-07T07:27:59;101664.09;;;2.55;100.00
59789;BME280;47353;51.614;5.530;2022-12-07T07:30:25;101656.97;;;2.54;100.00
59789;BME280;47353;51.614;5.530;2022-12-07T07:32:50;101666.84;;;2.48;100.00
59789;BME280;47353;51.614;5.530;2022-12-07T07:35:16;101648.09;;;2.39;100.00
59789;BME280;47353;51.614;5.530;2022-12-07T10:28:14;101666.63;;;10.09;75.34
59789;BME280;47353;51.614;5.530;2022-12-07T10:30:58;101659.56;;;9.85;75.97
59789;BME280;47353;51.614;5.530;2022-12-07T10:33:44;101663.06;;;9.31;75.50
59789;BME280;47353;51.614;5.530;2022-12-07T10:36:19;101662.16;;;8.58;77.45
59789;BME280;47353;51.614;5.530;2022-12-07T10:38:52;101655.03;;;8.22;78.09
59789;BME280;47353;51.614;5.530;2022-12-07T10:41:18;101654.66;;;8.07;79.98
59789;BME280;47353;51.614;5.530;2022-12-07T10:43:51;101653.22;;;8.05;81.61
59789;BME280;47353;51.614;5.530;2022-12-07T10:46:29;101638.50;;;7.88;80.67
59789;BME280;47353;51.614;5.530;2022-12-07T10:51:49;101639.56;;;7.98;83.00
59789;BME280;47353;51.614;5.530;2022-12-07T11:04:59;101635.00;;;7.92;80.70
59789;BME280;47353;51.614;5.530;2022-12-07T11:10:16;101634.94;;;7.23;83.19
59789;BME280;47353;51.614;5.530;2022-12-07T11:13:30;101623.78;;;7.18;84.22
59789;BME280;47353;51.614;5.530;2022-12-07T11:22:02;101613.22;;;7.68;82.77
59789;BME280;47353;51.614;5.530;2022-12-07T11:27:23;101611.75;;;8.00;81.68
59789;BME280;47353;51.614;5.530;2022-12-07T11:37:58;101594.38;;;7.76;80.77
59789;BME280;47353;51.614;5.530;2022-12-07T11:45:41;101591.84;;;7.29;83.60
59789;BME280;47353;51.614;5.530;2022-12-07T11:48:13;101590.50;;;7.20;83.38
59789;BME280;47353;51.614;5.530;2022-12-07T11:50:46;101589.31;;;7.27;85.13
59789;BME280;47353;51.614;5.530;2022-12-07T11:56:20;101573.75;;;7.56;82.93
59789;BME280;47353;51.614;5.530;2022-12-07T12:01:33;101574.25;;;7.87;81.61
59789;BME280;47353;51.614;5.530;2022-12-07T12:06:29;101566.78;;;9.40;76.80
59789;BME280;47353;51.614;5.530;2022-12-07T12:20:05;101563.28;;;8.67;73.99
59789;BME280;47353;51.614;5.530;2022-12-07T12:22:36;101573.06;;;8.46;76.82
59789;BME280;47353;51.614;5.530;2022-12-07T12:25:05;101566.28;;;8.65;76.59
59789;BME280;47353;51.614;5.530;2022-12-07T12:27:34;101570.00;;;9.04;77.77
59789;BME280;47353;51.614;5.530;2022-12-07T12:30:03;101569.63;;;9.45;75.96
59789;BME280;47353;51.614;5.530;2022-12-07T12:32:39;101573.97;;;9.57;75.96
59789;BME280;47353;51.614;5.530;2022-12-07T12:38:26;101559.75;;;10.68;75.91
59789;BME280;47353;51.614;5.530;2022-12-07T12:40:52;101552.25;;;12.62;67.61
59789;BME280;47353;51.614;5.530;2022-12-07T12:43:41;101551.56;;;13.31;66.27
59789;BME280;47353;51.614;5.530;2022-12-07T12:51:49;101542.34;;;15.08;55.01
59789;BME280;47353;51.614;5.530;2022-12-07T12:54:26;101538.00;;;16.40;53.89
59789;BME280;47353;51.614;5.530;2022-12-07T12:57:09;101533.16;;;16.88;51.27
59789;BME280;47353;51.614;5.530;2022-12-07T12:59:41;101528.97;;;17.04;51.18
59789;BME280;47353;51.614;5.530;2022-12-07T13:12:56;101526.78;;;13.80;54.80
59789;BME280;47353;51.614;5.530;2022-12-07T13:15:37;101521.75;;;15.04;53.92
59789;BME280;47353;51.614;5.530;2022-12-07T13:20:57;101516.81;;;13.39;52.99
59789;BME280;47353;51.614;5.530;2022-12-07T13:28:44;101510.19;;;9.80;62.71
59789;BME280;47353;51.614;5.530;2022-12-07T13:31:24;101510.19;;;9.26;64.82
59789;BME280;47353;51.614;5.530;2022-12-07T13:33:51;101506.66;;;8.81;66.64
59789;BME280;47353;51.614;5.530;2022-12-07T13:36:32;101501.47;;;9.01;67.36
59789;BME280;47353;51.614;5.530;2022-12-07T13:39:16;101502.22;;;8.80;68.25
59789;BME280;47353;51.614;5.530;2022-12-07T13:41:43;101494.28;;;8.38;68.62
59789;BME280;47353;51.614;5.530;2022-12-07T13:44:14;101486.34;;;8.02;70.49
59789;BME280;47353;51.614;5.530;2022-12-07T13:49:22;101481.63;;;7.86;72.47
59789;BME280;47353;51.614;5.530;2022-12-07T13:51:48;101480.16;;;8.35;71.45
59789;BME280;47353;51.614;5.530;2022-12-07T13:54:14;101473.63;;;8.24;71.44
59789;BME280;47353;51.614;5.530;2022-12-07T13:56:40;101470.69;;;7.91;72.39
59789;BME280;47353;51.614;5.530;2022-12-07T13:59:17;101472.56;;;7.63;74.30
59789;BME280;47353;51.614;5.530;2022-12-07T14:01:45;101470.06;;;7.50;75.32
59789;BME280;47353;51.614;5.530;2022-12-07T14:04:39;101464.34;;;7.40;76.20
59789;BME280;47353;51.614;5.530;2022-12-07T14:07:27;101467.44;;;7.32;76.38
59789;BME280;47353;51.614;5.530;2022-12-07T14:10:04;101462.66;;;7.27;77.11
59789;BME280;47353;51.614;5.530;2022-12-07T14:12:36;101462.91;;;7.26;77.22
59789;BME280;47353;51.614;5.530;2022-12-07T14:15:03;101459.81;;;7.11;77.92
59789;BME280;47353;51.614;5.530;2022-12-07T14:17:29;101450.81;;;7.04;78.85
59789;BME280;47353;51.614;5.530;2022-12-07T14:19:59;101452.50;;;6.93;79.70
59789;BME280;47353;51.614;5.530;2022-12-07T14:22:38;101452.47;;;6.70;81.09
59789;BME280;47353;51.614;5.530;2022-12-07T14:27:39;101457.28;;;6.33;85.43
59789;BME280;47353;51.614;5.530;2022-12-07T14:30:05;101466.19;;;6.17;84.24
59789;BME280;47353;51.614;5.530;2022-12-07T14:32:32;101470.28;;;5.97;85.17
59789;BME280;47353;51.614;5.530;2022-12-07T14:37:29;101470.25;;;6.15;86.58
59789;BME280;47353;51.614;5.530;2022-12-07T14:39:55;101471.75;;;6.11;84.83
59789;BME280;47353;51.614;5.530;2022-12-07T14:42:23;101459.31;;;6.08;83.58
59789;BME280;47353;51.614;5.530;2022-12-07T14:44:49;101460.75;;;6.11;82.77
59789;BME280;47353;51.614;5.530;2022-12-07T14:47:14;101449.44;;;5.89;81.81
59789;BME280;47353;51.614;5.530;2022-12-07T14:49:40;101452.16;;;6.07;81.77
59789;BME280;47353;51.614;5.530;2022-12-07T14:52:08;101449.19;;;6.09;82.11
59789;BME280;47353;51.614;5.530;2022-12-07T14:54:35;101441.63;;;6.04;81.39
59789;BME280;47353;51.614;5.530;2022-12-07T14:57:01;101443.06;;;6.07;81.11
59789;BME280;47353;51.614;5.530;2022-12-07T14:59:27;101443.78;;;6.02;80.73
59789;BME280;47353;51.614;5.530;2022-12-07T15:01:52;101431.59;;;5.98;81.22
59789;BME280;47353;51.614;5.530;2022-12-07T15:04:17;101437.66;;;6.00;81.12
59789;BME280;47353;51.614;5.530;2022-12-07T15:06:55;101435.63;;;5.96;80.98
59789;BME280;47353;51.614;5.530;2022-12-07T15:09:20;101433.06;;;5.83;81.14
59789;BME280;47353;51.614;5.530;2022-12-07T15:11:46;101439.22;;;5.78;81.33
59789;BME280;47353;51.614;5.530;2022-12-07T15:14:11;101436.78;;;5.70;81.83
59789;BME280;47353;51.614;5.530;2022-12-07T15:16:39;101436.84;;;5.64;81.72
59789;BME280;47353;51.614;5.530;2022-12-07T15:19:09;101438.69;;;5.52;81.99
59789;BME280;47353;51.614;5.530;2022-12-07T15:21:35;101424.19;;;5.45;82.40
59789;BME280;47353;51.614;5.530;2022-12-07T15:24:01;101429.94;;;5.25;83.19
59789;BME280;47353;51.614;5.530;2022-12-07T15:26:26;101439.59;;;5.09;83.62
59789;BME280;47353;51.614;5.530;2022-12-07T15:28:53;101434.53;;;4.88;85.16
59789;BME280;47353;51.614;5.530;2022-12-07T15:31:18;101434.47;;;4.70;86.64
59789;BME280;47353;51.614;5.530;2022-12-07T15:33:44;101437.59;;;4.74;88.51
59789;BME280;47353;51.614;5.530;2022-12-07T15:36:18;101431.31;;;4.73;89.40
59789;BME280;47353;51.614;5.530;2022-12-07T15:38:45;101428.97;;;4.70;89.42
59789;BME280;47353;51.614;5.530;2022-12-07T15:41:11;101420.44;;;4.60;90.55
59789;BME280;47353;51.614;5.530;2022-12-07T15:43:36;101421.34;;;4.54;91.24
59789;BME280;47353;51.614;5.530;2022-12-07T15:46:20;101426.19;;;4.52;92.35
59789;BME280;47353;51.614;5.530;2022-12-07T15:48:45;101413.38;;;4.46;92.80
59789;BME280;47353;51.614;5.530;2022-12-07T15:51:11;101411.03;;;4.50;93.50
59789;BME280;47353;51.614;5.530;2022-12-07T15:53:36;101397.78;;;4.47;93.84
59789;BME280;47353;51.614;5.530;2022-12-07T15:56:06;101408.03;;;4.58;94.12
59789;BME280;47353;51.614;5.530;2022-12-07T15:58:32;101402.53;;;4.58;94.34
59789;BME280;47353;51.614;5.530;2022-12-07T16:00:57;101397.88;;;4.58;94.88
59789;BME280;47353;51.614;5.530;2022-12-07T16:03:22;101403.28;;;4.47;95.10
59789;BME280;47353;51.614;5.530;2022-12-07T16:05:49;101393.66;;;4.38;96.25
59789;BME280;47353;51.614;5.530;2022-12-07T16:08:15;101385.25;;;4.33;96.61
59789;BME280;47353;51.614;5.530;2022-12-07T16:10:40;101391.59;;;4.33;97.25
59789;BME280;47353;51.614;5.530;2022-12-07T16:13:11;101388.84;;;4.33;97.57
59789;BME280;47353;51.614;5.530;2022-12-07T16:15:42;101386.75;;;4.29;97.63
59789;BME280;47353;51.614;5.530;2022-12-07T16:18:08;101390.31;;;4.29;97.66
59789;BME280;47353;51.614;5.530;2022-12-07T16:20:33;101391.84;;;4.25;97.80
59789;BME280;47353;51.614;5.530;2022-12-07T16:22:59;101370.19;;;4.17;98.27
59789;BME280;47353;51.614;5.530;2022-12-07T16:25:24;101381.19;;;4.11;99.31
59789;BME280;47353;51.614;5.530;2022-12-07T16:27:51;101375.09;;;4.09;99.42
59789;BME280;47353;51.614;5.530;2022-12-07T16:30:16;101377.47;;;4.05;99.27
59789;BME280;47353;51.614;5.530;2022-12-07T16:32:42;101377.84;;;4.09;99.65
59789;BME280;47353;51.614;5.530;2022-12-07T16:35:08;101376.78;;;4.10;100.00
59789;BME280;47353;51.614;5.530;2022-12-07T16:37:34;101379.94;;;4.13;99.93
59789;BME280;47353;51.614;5.530;2022-12-07T16:39:59;101370.66;;;4.14;99.92
59789;BME280;47353;51.614;5.530;2022-12-07T16:42:25;101371.72;;;4.13;100.00
59789;BME280;47353;51.614;5.530;2022-12-07T16:44:51;101375.50;;;4.12;100.00
59789;BME280;47353;51.614;5.530;2022-12-07T16:47:16;101373.59;;;4.13;100.00
59789;BME280;47353;51.614;5.530;2022-12-07T16:49:42;101371.09;;;4.11;100.00
59789;BME280;47353;51.614;5.530;2022-12-07T16:52:08;101375.09;;;4.09;100.00
59789;BME280;47353;51.614;5.530;2022-12-07T16:54:33;101363.53;;;4.07;100.00
59789;BME280;47353;51.614;5.530;2022-12-07T16:56:59;101363.97;;;4.04;100.00
59789;BME280;47353;51.614;5.530;2022-12-07T16:59:24;101357.44;;;4.05;100.00
59789;BME280;47353;51.614;5.530;2022-12-07T17:01:50;101351.09;;;4.04;100.00
59789;BME280;47353;51.614;5.530;2022-12-07T17:04:16;101353.91;;;3.98;100.00
59789;BME280;47353;51.614;5.530;2022-12-07T17:06:42;101357.47;;;3.98;100.00
59789;BME280;47353;51.614;5.530;2022-12-07T17:09:07;101359.00;;;3.94;100.00
59789;BME280;47353;51.614;5.530;2022-12-07T17:11:35;101352.66;;;3.94;100.00
59789;BME280;47353;51.614;5.530;2022-12-07T17:14:01;101345.06;;;3.96;100.00
59789;BME280;47353;51.614;5.530;2022-12-07T17:16:45;101349.94;;;3.94;100.00
59789;BME280;47353;51.614;5.530;2022-12-07T17:19:13;101349.53;;;3.90;100.00
59789;BME280;47353;51.614;5.530;2022-12-07T17:21:39;101338.19;;;3.87;100.00
59789;BME280;47353;51.614;5.530;2022-12-07T17:24:08;101353.31;;;3.89;100.00
59789;BME280;47353;51.614;5.530;2022-12-07T17:26:35;101340.50;;;3.90;100.00
59789;BME280;47353;51.614;5.530;2022-12-07T17:29:01;101344.50;;;3.87;100.00
59789;BME280;47353;51.614;5.530;2022-12-07T17:31:27;101351.44;;;3.90;100.00
59789;BME280;47353;51.614;5.530;2022-12-07T17:33:52;101338.38;;;3.92;100.00
59789;BME280;47353;51.614;5.530;2022-12-07T17:36:23;101340.22;;;3.98;100.00
59789;BME280;47353;51.614;5.530;2022-12-07T17:38:50;101333.44;;;4.00;100.00
59789;BME280;47353;51.614;5.530;2022-12-07T17:41:21;101333.69;;;3.99;100.00
59789;BME280;47353;51.614;5.530;2022-12-07T17:44:07;101334.75;;;3.98;100.00
59789;BME280;47353;51.614;5.530;2022-12-07T17:46:33;101329.09;;;3.93;100.00
59789;BME280;47353;51.614;5.530;2022-12-07T17:48:59;101326.56;;;3.91;100.00
59789;BME280;47353;51.614;5.530;2022-12-07T17:51:25;101323.22;;;3.89;100.00
59789;BME280;47353;51.614;5.530;2022-12-07T17:54:10;101324.28;;;3.88;100.00